createdAt,value
2019-06-20T00:00:10.820Z,20.12
2019-06-20T00:01:10.813Z,20.13
2019-06-20T00:02:10.797Z,20.12
2019-06-20T00:03:10.795Z,20.12
2019-06-20T00:04:10.787Z,20.12
2019-06-20T00:05:10.764Z,20.13
2019-06-20T00:06:10.752Z,20.11
2019-06-20T00:07:10.751Z,20.12
2019-06-20T00:08:10.728Z,20.12
2019-06-20T00:09:10.730Z,20.11
2019-06-20T00:10:10.708Z,20.10
2019-06-20T00:11:10.696Z,20.10
2019-06-20T00:12:10.687Z,20.10
2019-06-20T00:13:10.676Z,20.10
2019-06-20T00:14:10.667Z,20.11
2019-06-20T00:15:10.670Z,20.11
2019-06-20T00:16:10.643Z,20.11
2019-06-20T00:17:10.632Z,20.10
2019-06-20T00:18:10.637Z,20.09
2019-06-20T00:19:10.612Z,20.09
2019-06-20T00:20:10.598Z,20.10
2019-06-20T00:21:10.597Z,20.09
2019-06-20T00:22:10.577Z,20.09
2019-06-20T00:23:10.567Z,20.08
2019-06-20T00:24:10.559Z,20.08
2019-06-20T00:25:10.547Z,20.07
2019-06-20T00:26:10.536Z,20.08
2019-06-20T00:27:10.543Z,20.08
2019-06-20T00:28:10.515Z,20.08
2019-06-20T00:29:10.506Z,20.08
2019-06-20T00:30:10.499Z,20.07
2019-06-20T00:31:10.481Z,20.07
2019-06-20T00:32:10.470Z,20.05
2019-06-20T00:33:10.472Z,20.05
2019-06-20T00:34:10.448Z,20.04
2019-06-20T00:35:10.437Z,20.05
2019-06-20T00:36:10.430Z,20.04
2019-06-20T00:37:10.415Z,20.03
2019-06-20T00:38:10.407Z,20.01
2019-06-20T00:39:10.409Z,20.01
2019-06-20T00:40:10.394Z,20.01
2019-06-20T00:41:10.372Z,19.99
2019-06-20T00:42:10.379Z,19.99
2019-06-20T00:43:17.333Z,19.98
2019-06-20T00:44:11.351Z,19.96
2019-06-20T00:45:10.335Z,19.94
2019-06-20T00:46:10.324Z,19.94
2019-06-20T00:47:10.311Z,19.93
2019-06-20T00:48:10.308Z,19.92
2019-06-20T00:49:10.290Z,19.91
2019-06-20T00:50:10.298Z,19.89
2019-06-20T00:51:10.266Z,19.88
2019-06-20T00:52:10.255Z,19.87
2019-06-20T00:53:10.252Z,19.86
2019-06-20T00:54:10.243Z,19.85
2019-06-20T00:55:10.222Z,19.81
2019-06-20T00:56:10.229Z,19.80
2019-06-20T00:57:10.208Z,19.79
2019-06-20T00:58:10.192Z,19.77
2019-06-20T00:59:10.184Z,19.77
2019-06-20T01:00:10.171Z,19.75
2019-06-20T01:01:10.156Z,19.73
2019-06-20T01:02:10.279Z,19.73
2019-06-20T01:03:10.137Z,19.75
2019-06-20T01:04:10.125Z,19.73
2019-06-20T01:05:10.113Z,19.74
2019-06-20T01:06:10.106Z,19.72
2019-06-20T01:07:10.093Z,19.70
2019-06-20T01:08:10.122Z,19.72
2019-06-20T01:09:10.076Z,19.70
2019-06-20T01:10:10.061Z,19.69
2019-06-20T01:11:10.051Z,19.68
2019-06-20T01:12:10.046Z,19.67
2019-06-20T01:13:10.037Z,19.66
2019-06-20T01:14:10.031Z,19.66
2019-06-20T01:15:10.010Z,19.66
2019-06-20T01:16:09.996Z,19.66
2019-06-20T01:17:09.991Z,19.66
2019-06-20T01:18:09.971Z,19.67
2019-06-20T01:19:09.965Z,19.69
2019-06-20T01:20:09.962Z,19.71
2019-06-20T01:21:09.943Z,19.75
2019-06-20T01:22:10.127Z,19.76
2019-06-20T01:23:09.917Z,19.79
2019-06-20T01:24:09.906Z,19.82
2019-06-20T01:25:09.895Z,19.84
2019-06-20T01:26:09.908Z,19.85
2019-06-20T01:27:09.876Z,19.87
2019-06-20T01:28:09.870Z,19.88
2019-06-20T01:29:09.863Z,19.88
2019-06-20T01:30:09.848Z,19.89
2019-06-20T01:31:09.834Z,19.90
2019-06-20T01:32:09.837Z,19.88
2019-06-20T01:33:09.812Z,19.88
2019-06-20T01:34:09.824Z,19.88
2019-06-20T01:35:09.791Z,19.88
2019-06-20T01:36:09.779Z,19.88
2019-06-20T01:37:09.766Z,19.91
2019-06-20T01:38:09.766Z,19.92
2019-06-20T01:39:09.749Z,19.95
2019-06-20T01:40:09.735Z,19.99
2019-06-20T01:41:09.743Z,20.01
2019-06-20T01:42:09.716Z,20.07
2019-06-20T01:43:09.705Z,20.08
2019-06-20T01:44:09.704Z,20.13
2019-06-20T01:45:09.680Z,20.16
2019-06-20T01:46:09.670Z,20.19
2019-06-20T01:47:09.665Z,20.23
2019-06-20T01:48:09.649Z,20.25
2019-06-20T01:49:09.644Z,20.28
2019-06-20T01:50:09.647Z,20.32
2019-06-20T01:51:09.618Z,20.33
2019-06-20T01:52:09.607Z,20.33
2019-06-20T01:53:09.596Z,20.36
2019-06-20T01:54:09.585Z,20.37
2019-06-20T01:55:09.576Z,20.39
2019-06-20T01:56:09.572Z,20.40
2019-06-20T01:57:09.552Z,20.41
2019-06-20T01:58:09.543Z,20.43
2019-06-20T01:59:09.529Z,20.44
2019-06-20T02:00:09.555Z,20.46
2019-06-20T02:01:09.509Z,20.47
2019-06-20T02:02:09.508Z,20.49
2019-06-20T02:03:09.490Z,20.47
2019-06-20T02:04:09.477Z,20.47
2019-06-20T02:05:09.490Z,20.45
2019-06-20T02:06:09.454Z,20.44
2019-06-20T02:07:09.444Z,20.43
2019-06-20T02:08:09.446Z,20.41
2019-06-20T02:09:09.423Z,20.41
2019-06-20T02:10:09.414Z,20.40
2019-06-20T02:11:09.403Z,20.40
2019-06-20T02:12:09.390Z,20.41
2019-06-20T02:13:09.385Z,20.42
2019-06-20T02:14:09.389Z,20.43
2019-06-20T02:15:09.357Z,20.46
2019-06-20T02:16:09.348Z,20.47
2019-06-20T02:17:09.341Z,20.49
2019-06-20T02:18:09.326Z,20.52
2019-06-20T02:19:09.319Z,20.52
2019-06-20T02:20:09.314Z,20.54
2019-06-20T02:21:09.296Z,20.57
2019-06-20T02:22:09.288Z,20.58
2019-06-20T02:23:09.275Z,20.61
2019-06-20T02:24:09.264Z,20.63
2019-06-20T02:25:09.251Z,20.65
2019-06-20T02:26:09.255Z,20.67
2019-06-20T02:27:09.233Z,20.68
2019-06-20T02:28:09.220Z,20.70
2019-06-20T02:29:09.208Z,20.71
2019-06-20T02:30:09.200Z,20.73
2019-06-20T02:31:09.188Z,20.76
2019-06-20T02:32:09.195Z,20.77
2019-06-20T02:33:09.166Z,20.79
2019-06-20T02:34:09.157Z,20.80
2019-06-20T02:35:09.154Z,20.82
2019-06-20T02:36:09.170Z,20.83
2019-06-20T02:37:09.139Z,20.84
2019-06-20T02:38:09.133Z,20.84
2019-06-20T02:39:09.103Z,20.85
2019-06-20T02:40:09.094Z,20.86
2019-06-20T02:41:09.082Z,20.89
2019-06-20T02:42:09.076Z,20.91
2019-06-20T02:43:09.060Z,20.92
2019-06-20T02:44:28.456Z,20.93
2019-06-20T02:45:10.038Z,20.94
2019-06-20T02:46:09.027Z,20.94
2019-06-20T02:47:09.022Z,20.96
2019-06-20T02:48:09.011Z,20.98
2019-06-20T02:49:08.997Z,20.98
2019-06-20T02:50:09.001Z,20.98
2019-06-20T02:51:08.978Z,21.01
2019-06-20T02:52:08.966Z,21.02
2019-06-20T02:53:08.954Z,21.04
2019-06-20T02:54:08.943Z,21.06
2019-06-20T02:55:08.931Z,21.07
2019-06-20T02:56:08.943Z,21.08
2019-06-20T02:57:08.909Z,21.08
2019-06-20T02:58:08.903Z,21.07
2019-06-20T02:59:08.891Z,21.08
2019-06-20T03:00:08.877Z,21.10
2019-06-20T03:01:08.869Z,21.10
2019-06-20T03:02:08.867Z,21.11
2019-06-20T03:03:08.846Z,21.12
2019-06-20T03:04:08.850Z,21.11
2019-06-20T03:05:08.823Z,21.12
2019-06-20T03:06:08.811Z,21.11
2019-06-20T03:07:08.811Z,21.12
2019-06-20T03:08:08.814Z,21.11
2019-06-20T03:09:08.783Z,21.11
2019-06-20T03:10:08.770Z,21.11
2019-06-20T03:11:08.760Z,21.10
2019-06-20T03:12:08.754Z,21.12
2019-06-20T03:13:09.548Z,21.11
2019-06-20T03:14:08.741Z,21.12
2019-06-20T03:15:08.725Z,21.14
2019-06-20T03:16:08.706Z,21.14
2019-06-20T03:17:08.696Z,21.13
2019-06-20T03:18:08.688Z,21.13
2019-06-20T03:19:08.697Z,21.13
2019-06-20T03:20:08.698Z,21.14
2019-06-20T03:21:08.655Z,21.15
2019-06-20T03:22:08.641Z,21.14
2019-06-20T03:23:08.633Z,21.14
2019-06-20T03:24:08.622Z,21.14
2019-06-20T03:25:08.613Z,21.13
2019-06-20T03:26:08.612Z,21.14
2019-06-20T03:27:08.592Z,21.15
2019-06-20T03:28:08.581Z,21.14
2019-06-20T03:29:08.567Z,21.14
2019-06-20T03:30:08.559Z,21.14
2019-06-20T03:31:08.551Z,21.15
2019-06-20T03:32:08.550Z,21.15
2019-06-20T03:33:08.528Z,21.17
2019-06-20T03:34:08.517Z,21.17
2019-06-20T03:35:08.503Z,21.17
2019-06-20T03:36:08.505Z,21.16
2019-06-20T03:37:08.482Z,21.15
2019-06-20T03:38:08.491Z,21.14
2019-06-20T03:39:08.462Z,21.12
2019-06-20T03:40:08.455Z,21.10
2019-06-20T03:41:08.439Z,21.09
2019-06-20T03:42:08.435Z,21.09
2019-06-20T03:43:08.423Z,21.08
2019-06-20T03:44:08.419Z,21.08
2019-06-20T03:45:08.408Z,21.05
2019-06-20T03:46:08.388Z,21.05
2019-06-20T03:47:08.375Z,21.04
2019-06-20T03:48:08.374Z,21.03
2019-06-20T03:49:08.356Z,21.02
2019-06-20T03:50:08.354Z,21.02
2019-06-20T03:51:08.364Z,21.02
2019-06-20T03:52:08.326Z,21.01
2019-06-20T03:53:08.318Z,21.01
2019-06-20T03:54:08.300Z,21.02
2019-06-20T03:55:08.293Z,21.01
2019-06-20T03:56:08.292Z,21.02
2019-06-20T03:57:08.277Z,21.02
2019-06-20T03:58:08.265Z,21.03
2019-06-20T03:59:08.250Z,21.02
2019-06-20T04:00:08.263Z,21.03
2019-06-20T04:01:08.348Z,21.03
2019-06-20T04:02:08.227Z,21.04
2019-06-20T04:03:08.211Z,21.04
2019-06-20T04:04:08.197Z,21.02
2019-06-20T04:05:08.188Z,21.02
2019-06-20T04:06:08.176Z,21.02
2019-06-20T04:07:08.172Z,21.01
2019-06-20T04:08:08.167Z,21.01
2019-06-20T04:09:08.142Z,21.01
2019-06-20T04:10:08.131Z,21.02
2019-06-20T04:11:08.126Z,21.03
2019-06-20T04:12:08.112Z,21.06
2019-06-20T04:13:08.101Z,21.10
2019-06-20T04:14:08.108Z,21.13
2019-06-20T04:15:18.707Z,21.18
2019-06-20T04:16:09.075Z,21.19
2019-06-20T04:17:08.060Z,21.23
2019-06-20T04:18:08.046Z,21.27
2019-06-20T04:19:08.048Z,21.29
2019-06-20T04:20:08.035Z,21.30
2019-06-20T04:21:08.045Z,21.31
2019-06-20T04:22:08.011Z,21.31
2019-06-20T04:23:07.995Z,21.35
2019-06-20T04:24:07.987Z,21.39
2019-06-20T04:25:07.972Z,21.43
2019-06-20T04:26:07.979Z,21.47
2019-06-20T04:27:07.961Z,21.52
2019-06-20T04:28:07.941Z,21.55
2019-06-20T04:29:07.929Z,21.57
2019-06-20T04:30:07.923Z,21.59
2019-06-20T04:31:07.906Z,21.61
2019-06-20T04:32:07.914Z,21.66
2019-06-20T04:33:07.894Z,21.70
2019-06-20T04:34:07.881Z,21.73
2019-06-20T04:35:07.865Z,21.78
2019-06-20T04:36:07.895Z,21.84
2019-06-20T04:37:07.846Z,21.88
2019-06-20T04:38:07.906Z,21.90
2019-06-20T04:39:18.610Z,21.92
2019-06-20T04:40:08.813Z,21.96
2019-06-20T04:41:07.803Z,21.98
2019-06-20T04:42:07.796Z,22.01
2019-06-20T04:43:07.782Z,22.03
2019-06-20T04:44:07.783Z,22.05
2019-06-20T04:45:07.781Z,22.08
2019-06-20T04:46:07.752Z,22.07
2019-06-20T04:47:07.761Z,22.07
2019-06-20T04:48:07.732Z,22.04
2019-06-20T04:49:07.717Z,22.02
2019-06-20T04:50:07.724Z,21.99
2019-06-20T04:51:07.699Z,21.97
2019-06-20T04:52:07.689Z,21.99
2019-06-20T04:53:07.675Z,21.96
2019-06-20T04:54:07.668Z,21.96
2019-06-20T04:55:07.654Z,21.96
2019-06-20T04:56:07.656Z,21.96
2019-06-20T04:57:07.631Z,21.96
2019-06-20T04:58:07.637Z,21.96
2019-06-20T04:59:07.625Z,21.98
2019-06-20T05:00:07.600Z,22.03
2019-06-20T05:01:07.589Z,22.08
2019-06-20T05:02:07.618Z,22.13
2019-06-20T05:03:07.570Z,22.27
2019-06-20T05:04:07.583Z,22.39
2019-06-20T05:05:07.553Z,22.52
2019-06-20T05:06:07.536Z,22.63
2019-06-20T05:07:07.526Z,22.69
2019-06-20T05:08:07.535Z,22.71
2019-06-20T05:09:07.509Z,22.74
2019-06-20T05:10:07.496Z,22.72
2019-06-20T05:11:07.484Z,22.73
2019-06-20T05:12:07.471Z,22.75
2019-06-20T05:13:07.461Z,22.75
2019-06-20T05:14:07.464Z,22.77
2019-06-20T05:15:07.462Z,22.80
2019-06-20T05:16:07.433Z,22.86
2019-06-20T05:17:07.509Z,22.95
2019-06-20T05:18:07.408Z,23.06
2019-06-20T05:19:07.397Z,23.25
2019-06-20T05:20:07.438Z,23.59
2019-06-20T05:21:07.382Z,23.70
2019-06-20T05:22:07.364Z,23.83
2019-06-20T05:23:07.356Z,24.09
2019-06-20T05:24:07.340Z,24.70
2019-06-20T05:25:07.331Z,25.26
2019-06-20T05:26:07.333Z,25.65
2019-06-20T05:27:07.318Z,25.96
2019-06-20T05:28:07.297Z,26.44
2019-06-20T05:29:07.289Z,27.00
2019-06-20T05:30:07.441Z,27.26
2019-06-20T05:31:07.266Z,27.54
2019-06-20T05:32:07.345Z,27.88
2019-06-20T05:33:07.251Z,28.05
2019-06-20T05:34:07.237Z,28.35
2019-06-20T05:35:07.224Z,28.36
2019-06-20T05:36:07.215Z,28.38
2019-06-20T05:37:07.204Z,28.33
2019-06-20T05:38:07.207Z,28.29
2019-06-20T05:39:07.193Z,28.14
2019-06-20T05:40:07.169Z,27.98
2019-06-20T05:41:07.161Z,27.81
2019-06-20T05:42:07.150Z,27.63
2019-06-20T05:43:07.137Z,27.45
2019-06-20T05:44:07.139Z,27.28
2019-06-20T05:45:07.127Z,27.12
2019-06-20T05:46:10.807Z,26.96
2019-06-20T05:47:12.426Z,26.84
2019-06-20T05:48:08.083Z,26.70
2019-06-20T05:49:07.077Z,26.60
2019-06-20T05:50:07.074Z,26.50
2019-06-20T05:51:07.053Z,26.44
2019-06-20T05:52:07.042Z,26.39
2019-06-20T05:53:07.030Z,26.34
2019-06-20T05:54:07.020Z,26.24
2019-06-20T05:55:07.010Z,26.08
2019-06-20T05:56:07.029Z,25.94
2019-06-20T05:57:07.027Z,25.76
2019-06-20T05:58:06.976Z,25.63
2019-06-20T05:59:06.970Z,25.54
2019-06-20T06:00:08.381Z,25.47
2019-06-20T06:01:06.954Z,25.43
2019-06-20T06:02:06.962Z,25.40
2019-06-20T06:03:07.319Z,25.36
2019-06-20T06:04:06.914Z,25.29
2019-06-20T06:05:06.966Z,25.20
2019-06-20T06:06:06.893Z,25.10
2019-06-20T06:07:06.888Z,24.98
2019-06-20T06:08:06.884Z,24.87
2019-06-20T06:09:06.898Z,24.81
2019-06-20T06:10:06.850Z,24.75
2019-06-20T06:11:06.901Z,24.69
2019-06-20T06:12:06.828Z,24.66
2019-06-20T06:13:06.816Z,24.60
2019-06-20T06:14:06.818Z,24.55
2019-06-20T06:15:07.388Z,24.51
2019-06-20T06:16:06.794Z,24.47
2019-06-20T06:17:06.780Z,24.42
2019-06-20T06:18:06.761Z,24.37
2019-06-20T06:19:06.750Z,24.27
2019-06-20T06:20:06.766Z,24.23
2019-06-20T06:21:06.734Z,24.24
2019-06-20T06:22:06.717Z,24.24
2019-06-20T06:23:06.712Z,24.24
2019-06-20T06:24:06.700Z,24.24
2019-06-20T06:25:06.696Z,24.18
2019-06-20T06:26:06.700Z,24.09
2019-06-20T06:27:06.666Z,23.99
2019-06-20T06:28:06.655Z,23.88
2019-06-20T06:29:06.650Z,23.80
2019-06-20T06:30:06.643Z,23.73
2019-06-20T06:31:06.628Z,23.64
2019-06-20T06:32:06.625Z,23.58
2019-06-20T06:33:06.605Z,23.50
2019-06-20T06:34:06.594Z,23.44
2019-06-20T06:35:06.627Z,23.38
2019-06-20T06:36:06.571Z,23.33
2019-06-20T06:37:06.563Z,23.27
2019-06-20T06:38:06.567Z,23.23
2019-06-20T06:39:06.578Z,23.17
2019-06-20T06:40:06.540Z,23.13
2019-06-20T06:41:06.516Z,23.08
2019-06-20T06:42:06.504Z,23.06
2019-06-20T06:43:06.497Z,23.08
2019-06-20T06:44:08.477Z,23.16
2019-06-20T06:45:06.474Z,23.27
2019-06-20T06:46:06.468Z,23.34
2019-06-20T06:47:06.466Z,23.37
2019-06-20T06:48:06.446Z,23.39
2019-06-20T06:49:06.431Z,23.41
2019-06-20T06:50:06.439Z,23.50
2019-06-20T06:51:06.408Z,23.60
2019-06-20T06:52:06.407Z,23.74
2019-06-20T06:53:06.385Z,23.85
2019-06-20T06:54:06.386Z,23.97
2019-06-20T06:55:06.377Z,24.04
2019-06-20T06:56:06.381Z,24.10
2019-06-20T06:57:06.343Z,24.17
2019-06-20T06:58:06.332Z,24.26
2019-06-20T06:59:06.323Z,24.37
2019-06-20T07:00:06.438Z,24.52
2019-06-20T07:01:10.150Z,24.66
2019-06-20T07:02:06.306Z,24.81
2019-06-20T07:03:06.283Z,25.00
2019-06-20T07:04:06.271Z,25.20
2019-06-20T07:05:06.259Z,25.38
2019-06-20T07:06:06.256Z,25.54
2019-06-20T07:07:06.241Z,25.65
2019-06-20T07:08:06.248Z,25.77
2019-06-20T07:09:06.226Z,25.84
2019-06-20T07:10:06.209Z,25.96
2019-06-20T07:11:06.205Z,26.03
2019-06-20T07:12:06.203Z,26.09
2019-06-20T07:13:06.181Z,26.14
2019-06-20T07:14:06.173Z,26.16
2019-06-20T07:15:06.157Z,26.16
2019-06-20T07:16:06.152Z,26.16
2019-06-20T07:17:06.133Z,26.17
2019-06-20T07:18:06.131Z,26.20
2019-06-20T07:19:06.112Z,26.20
2019-06-20T07:20:06.121Z,26.19
2019-06-20T07:21:06.087Z,26.18
2019-06-20T07:22:06.078Z,26.20
2019-06-20T07:23:06.074Z,26.25
2019-06-20T07:24:06.057Z,26.41
2019-06-20T07:25:06.048Z,26.58
2019-06-20T07:26:06.042Z,26.77
2019-06-20T07:27:06.024Z,26.89
2019-06-20T07:28:06.018Z,27.00
2019-06-20T07:29:06.003Z,27.17
2019-06-20T07:30:06.004Z,27.35
2019-06-20T07:31:05.981Z,27.55
2019-06-20T07:32:05.982Z,27.75
2019-06-20T07:33:06.010Z,27.90
2019-06-20T07:34:05.952Z,28.03
2019-06-20T07:35:05.965Z,28.19
2019-06-20T07:36:05.930Z,28.34
2019-06-20T07:37:05.918Z,28.65
2019-06-20T07:38:05.943Z,28.82
2019-06-20T07:39:05.901Z,28.98
2019-06-20T07:40:05.885Z,29.32
2019-06-20T07:41:05.883Z,29.82
2019-06-20T07:42:05.866Z,29.79
2019-06-20T07:43:05.857Z,29.72
2019-06-20T07:44:05.863Z,29.73
2019-06-20T07:45:05.834Z,30.00
2019-06-20T07:46:05.905Z,30.21
2019-06-20T07:47:17.049Z,30.55
2019-06-20T07:48:06.802Z,31.79
2019-06-20T07:49:05.793Z,34.10
2019-06-20T07:50:05.797Z,34.48
2019-06-20T07:51:05.767Z,34.33
2019-06-20T07:52:05.757Z,34.27
2019-06-20T07:53:05.748Z,34.17
2019-06-20T07:54:05.754Z,33.80
2019-06-20T07:55:05.729Z,33.60
2019-06-20T07:56:09.292Z,33.54
2019-06-20T07:57:05.707Z,33.69
2019-06-20T07:58:05.712Z,33.78
2019-06-20T07:59:05.686Z,34.61
2019-06-20T08:00:05.679Z,34.90
2019-06-20T08:01:05.664Z,34.88
2019-06-20T08:02:05.662Z,34.76
2019-06-20T08:03:05.639Z,34.63
2019-06-20T08:04:05.636Z,34.40
2019-06-20T08:05:05.619Z,34.09
2019-06-20T08:06:05.613Z,33.79
2019-06-20T08:07:05.603Z,33.46
2019-06-20T08:08:05.605Z,33.20
2019-06-20T08:09:05.592Z,32.95
2019-06-20T08:10:05.568Z,32.73
2019-06-20T08:11:05.558Z,32.48
2019-06-20T08:12:05.554Z,32.21
2019-06-20T08:13:05.553Z,31.92
2019-06-20T08:14:05.534Z,31.64
2019-06-20T08:15:15.081Z,31.39
2019-06-20T08:16:06.502Z,31.17
2019-06-20T08:17:05.492Z,30.97
2019-06-20T08:18:05.516Z,30.75
2019-06-20T08:19:05.470Z,30.53
2019-06-20T08:20:05.476Z,30.27
2019-06-20T08:21:05.453Z,29.97
2019-06-20T08:22:05.453Z,29.73
2019-06-20T08:23:05.429Z,29.47
2019-06-20T08:24:05.422Z,29.24
2019-06-20T08:25:05.483Z,29.06
2019-06-20T08:26:05.409Z,28.89
2019-06-20T08:27:06.657Z,28.69
2019-06-20T08:28:06.514Z,28.53
2019-06-20T08:29:18.713Z,28.33
2019-06-20T08:30:07.286Z,28.19
2019-06-20T08:31:06.713Z,28.00
2019-06-20T08:32:06.537Z,27.92
2019-06-20T08:33:10.325Z,27.89
2019-06-20T08:34:06.592Z,27.89
2019-06-20T08:35:06.415Z,27.89
2019-06-20T08:36:06.555Z,27.87
2019-06-20T08:37:06.395Z,27.85
2019-06-20T08:38:07.075Z,27.82
2019-06-20T08:39:06.494Z,27.86
2019-06-20T08:40:06.468Z,27.94
2019-06-20T08:41:06.468Z,28.11
2019-06-20T08:42:06.386Z,28.31
2019-06-20T08:43:06.237Z,28.51
2019-06-20T08:44:06.159Z,28.57
2019-06-20T08:45:06.114Z,28.60
2019-06-20T08:46:10.072Z,28.61
2019-06-20T08:47:06.181Z,28.60
2019-06-20T08:48:05.166Z,28.60
2019-06-20T08:49:05.783Z,28.57
2019-06-20T08:50:06.068Z,28.51
2019-06-20T08:51:06.472Z,28.45
2019-06-20T08:52:05.597Z,28.41
2019-06-20T08:53:05.823Z,28.40
2019-06-20T08:54:05.451Z,28.45
2019-06-20T08:55:05.457Z,28.51
2019-06-20T08:56:05.499Z,28.53
2019-06-20T08:57:05.852Z,28.50
2019-06-20T08:58:05.606Z,28.37
2019-06-20T08:59:05.054Z,28.27
2019-06-20T09:03:05.010Z,28.11
2019-06-20T09:04:04.997Z,28.11
2019-06-20T09:05:04.998Z,28.03
2019-06-20T09:06:04.977Z,27.91
2019-06-20T09:08:04.968Z,27.61
2019-06-20T09:09:04.945Z,27.46
2019-06-20T09:10:04.933Z,27.30
2019-06-20T09:11:04.926Z,27.14
2019-06-20T09:12:05.166Z,26.97
2019-06-20T09:13:04.903Z,26.85
2019-06-20T09:14:04.917Z,26.73
2019-06-20T09:15:04.880Z,26.59
2019-06-20T09:16:04.871Z,26.45
2019-06-20T09:17:04.867Z,26.32
2019-06-20T09:18:04.850Z,26.20
2019-06-20T09:19:04.843Z,26.10
2019-06-20T09:20:04.841Z,26.04
2019-06-20T09:21:04.816Z,25.99
2019-06-20T09:22:05.070Z,25.94
2019-06-20T09:23:04.794Z,25.91
2019-06-20T09:24:04.783Z,25.88
2019-06-20T09:25:04.788Z,25.86
2019-06-20T09:26:04.777Z,25.87
2019-06-20T09:27:04.753Z,25.88
2019-06-20T09:28:04.752Z,25.89
2019-06-20T09:29:04.750Z,25.95
2019-06-20T09:30:04.736Z,26.12
2019-06-20T09:31:04.713Z,26.25
2019-06-20T09:32:04.747Z,26.48
2019-06-20T09:33:04.690Z,26.90
2019-06-20T09:34:05.471Z,27.32
2019-06-20T09:35:04.673Z,27.72
2019-06-20T09:36:04.722Z,28.21
2019-06-20T09:37:04.646Z,29.03
2019-06-20T09:38:04.651Z,29.91
2019-06-20T09:39:04.624Z,30.39
2019-06-20T09:40:04.615Z,30.68
2019-06-20T09:41:04.602Z,31.15
2019-06-20T09:42:04.593Z,31.43
2019-06-20T09:43:04.582Z,31.45
2019-06-20T09:44:04.602Z,31.37
2019-06-20T09:45:04.559Z,31.22
2019-06-20T09:46:04.558Z,31.04
2019-06-20T09:47:04.547Z,30.84
2019-06-20T09:48:04.527Z,30.61
2019-06-20T09:49:04.519Z,30.40
2019-06-20T09:50:04.521Z,30.18
2019-06-20T09:51:04.495Z,29.95
2019-06-20T09:52:04.485Z,29.74
2019-06-20T09:53:04.474Z,29.55
2019-06-20T09:54:04.466Z,29.38
2019-06-20T09:55:04.464Z,29.27
2019-06-20T09:56:04.475Z,29.23
2019-06-20T09:57:04.431Z,29.21
2019-06-20T09:58:04.434Z,29.28
2019-06-20T09:59:04.416Z,29.41
2019-06-20T10:00:10.109Z,29.53
2019-06-20T10:01:05.401Z,29.65
2019-06-20T10:02:04.381Z,29.82
2019-06-20T10:03:04.367Z,30.10
2019-06-20T10:04:04.355Z,30.25
2019-06-20T10:05:04.344Z,30.41
2019-06-20T10:06:13.429Z,30.57
2019-06-20T10:07:05.340Z,30.71
2019-06-20T10:08:04.314Z,30.82
2019-06-20T10:09:04.307Z,30.95
2019-06-20T10:10:04.292Z,31.11
2019-06-20T10:11:04.283Z,31.44
2019-06-20T10:12:04.280Z,31.61
2019-06-20T10:13:04.283Z,32.21
2019-06-20T10:14:04.251Z,33.50
2019-06-20T10:15:04.260Z,34.03
2019-06-20T10:16:04.237Z,34.46
2019-06-20T10:17:04.223Z,34.40
2019-06-20T10:18:04.211Z,34.54
2019-06-20T10:19:04.211Z,34.48
2019-06-20T10:20:04.191Z,34.52
2019-06-20T10:21:04.178Z,34.64
2019-06-20T10:22:04.171Z,35.03
2019-06-20T10:23:04.159Z,35.50
2019-06-20T10:24:04.146Z,35.59
2019-06-20T10:25:04.146Z,36.23
2019-06-20T10:26:04.126Z,37.36
2019-06-20T10:27:04.135Z,39.20
2019-06-20T10:28:04.103Z,40.65
2019-06-20T10:29:04.093Z,41.59
2019-06-20T10:30:13.857Z,42.61
2019-06-20T10:31:05.083Z,43.46
2019-06-20T10:32:04.079Z,43.29
2019-06-20T10:33:04.054Z,42.88
2019-06-20T10:34:04.042Z,41.61
2019-06-20T10:35:04.031Z,40.99
2019-06-20T10:36:04.020Z,40.46
2019-06-20T10:37:04.044Z,39.72
2019-06-20T10:38:03.999Z,39.13
2019-06-20T10:39:03.995Z,38.66
2019-06-20T10:40:03.987Z,38.26
2019-06-20T10:41:03.971Z,37.65
2019-06-20T10:42:03.967Z,36.97
2019-06-20T10:43:03.962Z,36.45
2019-06-20T10:44:03.940Z,35.96
2019-06-20T10:45:03.963Z,35.78
2019-06-20T10:46:03.924Z,35.36
2019-06-20T10:47:03.910Z,34.99
2019-06-20T10:48:03.895Z,34.62
2019-06-20T10:49:03.903Z,34.46
2019-06-20T10:50:03.878Z,34.28
2019-06-20T10:51:03.864Z,34.38
2019-06-20T10:52:03.854Z,34.76
2019-06-20T10:53:03.847Z,35.55
2019-06-20T10:54:03.875Z,35.80
2019-06-20T10:55:03.864Z,35.09
2019-06-20T10:56:03.813Z,34.85
2019-06-20T10:57:03.803Z,34.56
2019-06-20T10:58:03.800Z,34.20
2019-06-20T10:59:03.794Z,34.12
2019-06-20T11:00:03.772Z,34.05
2019-06-20T11:01:03.786Z,33.87
2019-06-20T11:02:06.460Z,33.57
2019-06-20T11:03:03.739Z,33.21
2019-06-20T11:04:03.730Z,32.80
2019-06-20T11:05:03.721Z,32.41
2019-06-20T11:06:03.709Z,32.12
2019-06-20T11:07:03.714Z,31.86
2019-06-20T11:08:03.687Z,31.66
2019-06-20T11:09:03.675Z,31.52
2019-06-20T11:10:03.669Z,31.38
2019-06-20T11:11:03.682Z,31.21
2019-06-20T11:12:03.658Z,31.06
2019-06-20T11:13:03.646Z,30.98
2019-06-20T11:14:03.632Z,30.86
2019-06-20T11:15:03.613Z,30.74
2019-06-20T11:16:03.602Z,30.64
2019-06-20T11:17:03.593Z,30.58
2019-06-20T11:18:03.598Z,30.57
2019-06-20T11:19:03.584Z,30.76
2019-06-20T11:20:03.561Z,30.83
2019-06-20T11:21:03.549Z,30.91
2019-06-20T11:22:03.554Z,30.95
2019-06-20T11:23:03.526Z,30.91
2019-06-20T11:24:03.525Z,30.86
2019-06-20T11:25:03.520Z,30.80
2019-06-20T11:26:03.496Z,30.74
2019-06-20T11:27:03.485Z,30.69
2019-06-20T11:28:03.478Z,30.63
2019-06-20T11:29:03.491Z,30.60
2019-06-20T11:30:03.698Z,30.59
2019-06-20T11:31:03.458Z,30.55
2019-06-20T11:32:03.435Z,30.50
2019-06-20T11:33:03.427Z,30.47
2019-06-20T11:34:03.412Z,30.44
2019-06-20T11:35:03.424Z,30.37
2019-06-20T11:36:03.388Z,30.41
2019-06-20T11:37:03.391Z,30.46
2019-06-20T11:38:03.374Z,30.49
2019-06-20T11:39:03.357Z,30.55
2019-06-20T11:40:03.348Z,30.58
2019-06-20T11:41:03.334Z,30.52
2019-06-20T11:42:03.328Z,30.45
2019-06-20T11:43:03.479Z,30.31
2019-06-20T11:44:03.309Z,30.18
2019-06-20T11:45:03.334Z,30.02
2019-06-20T11:46:03.285Z,29.88
2019-06-20T11:47:03.325Z,29.82
2019-06-20T11:48:03.263Z,29.80
2019-06-20T11:49:03.262Z,29.81
2019-06-20T11:50:03.263Z,29.80
2019-06-20T11:51:03.234Z,29.90
2019-06-20T11:52:03.222Z,30.04
2019-06-20T11:53:03.224Z,30.24
2019-06-20T11:54:03.200Z,30.38
2019-06-20T11:55:03.204Z,30.38
2019-06-20T11:56:03.187Z,30.32
2019-06-20T11:57:03.181Z,30.30
2019-06-20T11:58:03.160Z,30.31
2019-06-20T11:59:03.154Z,30.47
2019-06-20T12:00:03.139Z,30.55
2019-06-20T12:01:04.219Z,30.60
2019-06-20T12:02:03.120Z,30.60
2019-06-20T12:03:03.108Z,30.59
2019-06-20T12:04:03.098Z,30.51
2019-06-20T12:05:03.083Z,30.39
2019-06-20T12:06:03.099Z,30.28
2019-06-20T12:07:03.077Z,30.21
2019-06-20T12:08:03.063Z,30.14
2019-06-20T12:09:03.043Z,30.11
2019-06-20T12:10:03.037Z,30.04
2019-06-20T12:11:03.030Z,29.97
2019-06-20T12:12:03.016Z,29.87
2019-06-20T12:13:03.028Z,29.81
2019-06-20T12:14:03.006Z,29.77
2019-06-20T12:15:02.985Z,29.76
2019-06-20T12:16:02.971Z,29.76
2019-06-20T12:17:02.959Z,29.73
2019-06-20T12:18:02.951Z,29.69
2019-06-20T12:19:02.951Z,29.66
2019-06-20T12:20:02.929Z,29.66
2019-06-20T12:21:02.951Z,29.64
2019-06-20T12:22:02.909Z,29.65
2019-06-20T12:23:02.897Z,29.66
2019-06-20T12:24:02.888Z,29.71
2019-06-20T12:25:02.885Z,29.75
2019-06-20T12:26:02.868Z,29.87
2019-06-20T12:27:02.858Z,29.91
2019-06-20T12:28:02.860Z,29.93
2019-06-20T12:29:02.845Z,29.99
2019-06-20T12:30:02.827Z,30.10
2019-06-20T12:31:18.250Z,30.26
2019-06-20T12:32:03.804Z,30.34
2019-06-20T12:33:02.806Z,30.35
2019-06-20T12:34:02.799Z,30.40
2019-06-20T12:35:02.773Z,30.49
2019-06-20T12:36:02.768Z,30.54
2019-06-20T12:37:02.767Z,30.59
2019-06-20T12:38:02.740Z,30.65
2019-06-20T12:39:02.729Z,30.77
2019-06-20T12:40:02.721Z,30.93
2019-06-20T12:41:02.711Z,31.11
2019-06-20T12:42:02.717Z,31.27
2019-06-20T12:43:02.700Z,31.40
2019-06-20T12:44:02.675Z,31.52
2019-06-20T12:45:02.674Z,31.65
2019-06-20T12:46:02.655Z,31.78
2019-06-20T12:47:02.653Z,31.89
2019-06-20T12:48:02.640Z,31.96
2019-06-20T12:49:02.683Z,32.05
2019-06-20T12:50:02.613Z,32.10
2019-06-20T12:51:02.600Z,32.09
2019-06-20T12:52:02.606Z,32.12
2019-06-20T12:53:02.592Z,32.13
2019-06-20T12:54:02.572Z,32.19
2019-06-20T12:55:02.576Z,32.24
2019-06-20T12:56:02.549Z,32.26